sensor_id;sensor_type;location;lat;lon;timestamp;P1;durP1;ratioP1;P2;durP2;ratioP2
17631;SDS011;8934;51.194;17.150;2023-04-03T00:02:03;3.85;;;1.77;;
17631;SDS011;8934;51.194;17.150;2023-04-03T00:04:51;8.93;;;3.35;;
17631;SDS011;8934;51.194;17.150;2023-04-03T00:07:38;7.28;;;2.10;;
17631;SDS011;8934;51.194;17.150;2023-04-03T00:10:26;8.60;;;2.10;;
17631;SDS011;8934;51.194;17.150;2023-04-03T00:13:15;4.72;;;1.92;;
17631;SDS011;8934;51.194;17.150;2023-04-03T00:16:04;5.72;;;1.77;;
17631;SDS011;8934;51.194;17.150;2023-04-03T00:18:53;8.48;;;3.58;;
17631;SDS011;8934;51.194;17.150;2023-04-03T00:21:40;5.43;;;2.15;;
17631;SDS011;8934;51.194;17.150;2023-04-03T00:24:28;5.88;;;2.03;;
17631;SDS011;8934;51.194;17.150;2023-04-03T00:27:16;9.63;;;2.60;;
17631;SDS011;8934;51.194;17.150;2023-04-03T00:30:06;6.38;;;2.00;;
17631;SDS011;8934;51.194;17.150;2023-04-03T00:32:55;5.80;;;2.25;;
17631;SDS011;8934;51.194;17.150;2023-04-03T00:35:43;12.70;;;2.45;;
17631;SDS011;8934;51.194;17.150;2023-04-03T00:38:31;6.68;;;2.25;;
17631;SDS011;8934;51.194;17.150;2023-04-03T00:41:19;4.88;;;2.05;;
17631;SDS011;8934;51.194;17.150;2023-04-03T00:44:23;6.47;;;2.05;;
17631;SDS011;8934;51.194;17.150;2023-04-03T00:47:49;8.75;;;2.15;;
17631;SDS011;8934;51.194;17.150;2023-04-03T00:50:37;5.93;;;2.22;;
17631;SDS011;8934;51.194;17.150;2023-04-03T00:53:27;10.35;;;2.13;;
17631;SDS011;8934;51.194;17.150;2023-04-03T00:56:19;6.20;;;2.38;;
17631;SDS011;8934;51.194;17.150;2023-04-03T00:59:12;7.35;;;2.13;;
17631;SDS011;8934;51.194;17.150;2023-04-03T01:02:03;4.57;;;1.80;;
17631;SDS011;8934;51.194;17.150;2023-04-03T01:04:52;10.32;;;1.85;;
17631;SDS011;8934;51.194;17.150;2023-04-03T01:07:40;7.53;;;2.30;;
17631;SDS011;8934;51.194;17.150;2023-04-03T01:10:28;7.90;;;2.60;;
17631;SDS011;8934;51.194;17.150;2023-04-03T01:13:21;7.88;;;2.25;;
17631;SDS011;8934;51.194;17.150;2023-04-03T01:16:10;6.75;;;2.08;;
17631;SDS011;8934;51.194;17.150;2023-04-03T01:18:58;7.05;;;2.15;;
17631;SDS011;8934;51.194;17.150;2023-04-03T01:22:03;4.03;;;2.45;;
17631;SDS011;8934;51.194;17.150;2023-04-03T01:25:03;5.97;;;2.40;;
17631;SDS011;8934;51.194;17.150;2023-04-03T01:27:51;6.88;;;2.78;;
17631;SDS011;8934;51.194;17.150;2023-04-03T01:30:41;11.48;;;2.83;;
17631;SDS011;8934;51.194;17.150;2023-04-03T01:33:35;9.95;;;2.63;;
17631;SDS011;8934;51.194;17.150;2023-04-03T01:36:23;8.27;;;2.72;;
17631;SDS011;8934;51.194;17.150;2023-04-03T01:39:13;5.88;;;2.17;;
17631;SDS011;8934;51.194;17.150;2023-04-03T01:42:01;6.25;;;2.67;;
17631;SDS011;8934;51.194;17.150;2023-04-03T01:44:54;6.97;;;2.17;;
17631;SDS011;8934;51.194;17.150;2023-04-03T01:47:42;6.60;;;2.17;;
17631;SDS011;8934;51.194;17.150;2023-04-03T01:50:31;4.90;;;2.40;;
17631;SDS011;8934;51.194;17.150;2023-04-03T01:53:20;4.95;;;1.77;;
17631;SDS011;8934;51.194;17.150;2023-04-03T01:56:07;5.05;;;1.90;;
17631;SDS011;8934;51.194;17.150;2023-04-03T01:58:57;9.13;;;2.75;;
17631;SDS011;8934;51.194;17.150;2023-04-03T02:01:45;10.77;;;3.58;;
17631;SDS011;8934;51.194;17.150;2023-04-03T02:04:32;6.80;;;2.45;;
17631;SDS011;8934;51.194;17.150;2023-04-03T02:07:21;10.25;;;2.22;;
17631;SDS011;8934;51.194;17.150;2023-04-03T02:10:09;8.40;;;2.40;;
17631;SDS011;8934;51.194;17.150;2023-04-03T02:12:57;7.13;;;2.30;;
17631;SDS011;8934;51.194;17.150;2023-04-03T02:15:45;9.30;;;3.08;;
17631;SDS011;8934;51.194;17.150;2023-04-03T02:18:35;6.90;;;2.72;;
17631;SDS011;8934;51.194;17.150;2023-04-03T02:21:23;6.60;;;2.20;;
17631;SDS011;8934;51.194;17.150;2023-04-03T02:24:13;9.93;;;2.67;;
17631;SDS011;8934;51.194;17.150;2023-04-03T02:27:01;4.78;;;2.25;;
17631;SDS011;8934;51.194;17.150;2023-04-03T02:29:49;8.20;;;1.90;;
17631;SDS011;8934;51.194;17.150;2023-04-03T02:32:36;6.78;;;2.25;;
17631;SDS011;8934;51.194;17.150;2023-04-03T02:35:24;6.93;;;2.15;;
17631;SDS011;8934;51.194;17.150;2023-04-03T02:38:14;11.90;;;3.55;;
17631;SDS011;8934;51.194;17.150;2023-04-03T02:41:03;7.30;;;2.35;;
17631;SDS011;8934;51.194;17.150;2023-04-03T02:43:52;7.63;;;3.28;;
17631;SDS011;8934;51.194;17.150;2023-04-03T02:46:40;6.20;;;2.47;;
17631;SDS011;8934;51.194;17.150;2023-04-03T02:49:27;6.60;;;2.63;;
17631;SDS011;8934;51.194;17.150;2023-04-03T02:52:15;8.57;;;2.85;;
17631;SDS011;8934;51.194;17.150;2023-04-03T02:55:03;9.90;;;2.83;;
17631;SDS011;8934;51.194;17.150;2023-04-03T02:57:52;9.40;;;2.90;;
17631;SDS011;8934;51.194;17.150;2023-04-03T03:00:40;8.32;;;2.53;;
17631;SDS011;8934;51.194;17.150;2023-04-03T03:03:27;14.73;;;3.25;;
17631;SDS011;8934;51.194;17.150;2023-04-03T03:06:15;10.00;;;2.70;;
17631;SDS011;8934;51.194;17.150;2023-04-03T03:09:04;5.85;;;2.65;;
17631;SDS011;8934;51.194;17.150;2023-04-03T03:11:52;8.05;;;2.72;;
17631;SDS011;8934;51.194;17.150;2023-04-03T03:14:42;5.88;;;2.95;;
17631;SDS011;8934;51.194;17.150;2023-04-03T03:17:29;7.90;;;2.83;;
17631;SDS011;8934;51.194;17.150;2023-04-03T03:20:16;12.60;;;3.03;;
17631;SDS011;8934;51.194;17.150;2023-04-03T03:23:05;7.55;;;2.75;;
17631;SDS011;8934;51.194;17.150;2023-04-03T03:25:54;7.43;;;3.50;;
17631;SDS011;8934;51.194;17.150;2023-04-03T03:28:42;9.45;;;3.35;;
17631;SDS011;8934;51.194;17.150;2023-04-03T03:31:31;9.02;;;2.78;;
17631;SDS011;8934;51.194;17.150;2023-04-03T03:34:19;7.82;;;3.58;;
17631;SDS011;8934;51.194;17.150;2023-04-03T03:37:07;11.00;;;3.80;;
17631;SDS011;8934;51.194;17.150;2023-04-03T03:39:55;15.48;;;3.50;;
17631;SDS011;8934;51.194;17.150;2023-04-03T03:42:42;10.27;;;3.20;;
17631;SDS011;8934;51.194;17.150;2023-04-03T03:45:30;12.88;;;3.85;;
17631;SDS011;8934;51.194;17.150;2023-04-03T03:48:21;8.85;;;3.58;;
17631;SDS011;8934;51.194;17.150;2023-04-03T03:51:09;7.97;;;3.40;;
17631;SDS011;8934;51.194;17.150;2023-04-03T03:53:57;10.35;;;3.42;;
17631;SDS011;8934;51.194;17.150;2023-04-03T03:56:45;11.27;;;3.70;;
17631;SDS011;8934;51.194;17.150;2023-04-03T03:59:33;9.48;;;3.20;;
17631;SDS011;8934;51.194;17.150;2023-04-03T04:02:20;5.45;;;2.95;;
17631;SDS011;8934;51.194;17.150;2023-04-03T04:05:09;5.40;;;3.08;;
17631;SDS011;8934;51.194;17.150;2023-04-03T04:07:57;11.73;;;3.40;;
17631;SDS011;8934;51.194;17.150;2023-04-03T04:10:45;10.30;;;3.15;;
17631;SDS011;8934;51.194;17.150;2023-04-03T04:13:35;9.07;;;2.47;;
17631;SDS011;8934;51.194;17.150;2023-04-03T04:16:22;11.63;;;4.20;;
17631;SDS011;8934;51.194;17.150;2023-04-03T04:19:11;5.60;;;2.47;;
17631;SDS011;8934;51.194;17.150;2023-04-03T04:22:03;11.07;;;3.40;;
17631;SDS011;8934;51.194;17.150;2023-04-03T04:24:51;9.07;;;3.03;;
17631;SDS011;8934;51.194;17.150;2023-04-03T04:27:40;9.07;;;3.38;;
17631;SDS011;8934;51.194;17.150;2023-04-03T04:30:29;8.65;;;2.65;;
17631;SDS011;8934;51.194;17.150;2023-04-03T04:33:16;12.35;;;3.70;;
17631;SDS011;8934;51.194;17.150;2023-04-03T04:36:05;9.40;;;2.80;;
17631;SDS011;8934;51.194;17.150;2023-04-03T04:38:55;7.40;;;2.97;;
17631;SDS011;8934;51.194;17.150;2023-04-03T04:41:45;7.15;;;2.78;;
17631;SDS011;8934;51.194;17.150;2023-04-03T04:44:33;10.88;;;3.45;;
17631;SDS011;8934;51.194;17.150;2023-04-03T04:47:21;6.47;;;2.67;;
17631;SDS011;8934;51.194;17.150;2023-04-03T04:50:09;6.53;;;2.55;;
17631;SDS011;8934;51.194;17.150;2023-04-03T04:52:58;7.22;;;2.08;;
17631;SDS011;8934;51.194;17.150;2023-04-03T04:55:47;8.43;;;2.67;;
17631;SDS011;8934;51.194;17.150;2023-04-03T04:58:35;11.85;;;4.45;;
17631;SDS011;8934;51.194;17.150;2023-04-03T05:01:23;7.80;;;2.50;;
17631;SDS011;8934;51.194;17.150;2023-04-03T05:04:21;9.38;;;2.78;;
17631;SDS011;8934;51.194;17.150;2023-04-03T05:07:14;6.82;;;2.22;;
17631;SDS011;8934;51.194;17.150;2023-04-03T05:10:02;8.65;;;2.63;;
17631;SDS011;8934;51.194;17.150;2023-04-03T05:12:52;8.55;;;2.28;;
17631;SDS011;8934;51.194;17.150;2023-04-03T05:15:40;5.20;;;2.45;;
17631;SDS011;8934;51.194;17.150;2023-04-03T05:18:28;9.68;;;2.72;;
17631;SDS011;8934;51.194;17.150;2023-04-03T05:21:20;10.52;;;2.92;;
17631;SDS011;8934;51.194;17.150;2023-04-03T05:24:10;9.52;;;2.80;;
17631;SDS011;8934;51.194;17.150;2023-04-03T05:27:01;6.45;;;2.78;;
17631;SDS011;8934;51.194;17.150;2023-04-03T05:29:52;9.98;;;2.78;;
17631;SDS011;8934;51.194;17.150;2023-04-03T05:32:41;9.20;;;2.58;;
17631;SDS011;8934;51.194;17.150;2023-04-03T05:35:48;7.82;;;2.40;;
17631;SDS011;8934;51.194;17.150;2023-04-03T05:38:42;6.45;;;2.60;;
17631;SDS011;8934;51.194;17.150;2023-04-03T05:41:30;8.43;;;2.25;;
17631;SDS011;8934;51.194;17.150;2023-04-03T05:44:17;6.85;;;2.47;;
17631;SDS011;8934;51.194;17.150;2023-04-03T05:47:08;7.22;;;2.70;;
17631;SDS011;8934;51.194;17.150;2023-04-03T05:49:56;6.68;;;2.10;;
17631;SDS011;8934;51.194;17.150;2023-04-03T05:52:45;5.28;;;2.20;;
17631;SDS011;8934;51.194;17.150;2023-04-03T05:55:35;3.10;;;2.00;;
17631;SDS011;8934;51.194;17.150;2023-04-03T05:58:25;5.35;;;2.90;;
17631;SDS011;8934;51.194;17.150;2023-04-03T06:01:14;8.77;;;2.90;;
17631;SDS011;8934;51.194;17.150;2023-04-03T06:04:04;6.13;;;2.72;;
17631;SDS011;8934;51.194;17.150;2023-04-03T06:06:56;7.18;;;2.95;;
17631;SDS011;8934;51.194;17.150;2023-04-03T06:09:45;9.10;;;2.45;;
17631;SDS011;8934;51.194;17.150;2023-04-03T06:12:34;6.72;;;3.03;;
17631;SDS011;8934;51.194;17.150;2023-04-03T06:15:22;6.97;;;2.50;;
17631;SDS011;8934;51.194;17.150;2023-04-03T06:18:10;6.30;;;3.45;;
17631;SDS011;8934;51.194;17.150;2023-04-03T06:21:00;8.98;;;3.58;;
17631;SDS011;8934;51.194;17.150;2023-04-03T06:23:48;13.38;;;4.00;;
17631;SDS011;8934;51.194;17.150;2023-04-03T06:26:37;11.30;;;2.85;;
17631;SDS011;8934;51.194;17.150;2023-04-03T06:29:24;6.20;;;3.20;;
17631;SDS011;8934;51.194;17.150;2023-04-03T06:32:12;7.82;;;3.70;;
17631;SDS011;8934;51.194;17.150;2023-04-03T06:35:00;5.32;;;3.00;;
17631;SDS011;8934;51.194;17.150;2023-04-03T06:37:49;6.97;;;2.55;;
17631;SDS011;8934;51.194;17.150;2023-04-03T06:40:36;4.68;;;2.00;;
17631;SDS011;8934;51.194;17.150;2023-04-03T06:43:24;4.65;;;2.33;;
17631;SDS011;8934;51.194;17.150;2023-04-03T06:46:13;4.40;;;3.10;;
17631;SDS011;8934;51.194;17.150;2023-04-03T06:49:02;8.73;;;3.03;;
17631;SDS011;8934;51.194;17.150;2023-04-03T06:51:50;3.55;;;2.33;;
17631;SDS011;8934;51.194;17.150;2023-04-03T06:54:38;6.45;;;2.75;;
17631;SDS011;8934;51.194;17.150;2023-04-03T06:57:27;6.40;;;3.15;;
17631;SDS011;8934;51.194;17.150;2023-04-03T07:00:15;7.82;;;2.50;;
17631;SDS011;8934;51.194;17.150;2023-04-03T07:03:03;5.05;;;2.40;;
17631;SDS011;8934;51.194;17.150;2023-04-03T07:05:50;8.65;;;2.72;;
17631;SDS011;8934;51.194;17.150;2023-04-03T07:08:38;5.82;;;3.25;;
17631;SDS011;8934;51.194;17.150;2023-04-03T07:11:27;6.32;;;2.70;;
17631;SDS011;8934;51.194;17.150;2023-04-03T07:14:15;4.28;;;2.85;;
17631;SDS011;8934;51.194;17.150;2023-04-03T07:17:03;6.28;;;2.55;;
17631;SDS011;8934;51.194;17.150;2023-04-03T07:19:51;5.65;;;2.47;;
17631;SDS011;8934;51.194;17.150;2023-04-03T07:22:38;6.88;;;3.10;;
17631;SDS011;8934;51.194;17.150;2023-04-03T07:25:26;5.80;;;2.45;;
17631;SDS011;8934;51.194;17.150;2023-04-03T07:28:15;7.20;;;3.30;;
17631;SDS011;8934;51.194;17.150;2023-04-03T07:31:05;7.75;;;2.63;;
17631;SDS011;8934;51.194;17.150;2023-04-03T07:33:56;5.35;;;2.83;;
17631;SDS011;8934;51.194;17.150;2023-04-03T07:36:44;6.43;;;3.00;;
17631;SDS011;8934;51.194;17.150;2023-04-03T07:39:31;5.38;;;2.83;;
17631;SDS011;8934;51.194;17.150;2023-04-03T07:42:20;3.58;;;2.78;;
17631;SDS011;8934;51.194;17.150;2023-04-03T07:45:09;5.45;;;2.63;;
17631;SDS011;8934;51.194;17.150;2023-04-03T07:47:59;8.02;;;3.05;;
17631;SDS011;8934;51.194;17.150;2023-04-03T07:50:48;6.70;;;2.80;;
17631;SDS011;8934;51.194;17.150;2023-04-03T07:53:36;4.25;;;2.38;;
17631;SDS011;8934;51.194;17.150;2023-04-03T07:56:24;5.45;;;3.00;;
17631;SDS011;8934;51.194;17.150;2023-04-03T07:59:12;5.22;;;2.55;;
17631;SDS011;8934;51.194;17.150;2023-04-03T08:02:01;6.13;;;2.40;;
17631;SDS011;8934;51.194;17.150;2023-04-03T08:04:50;4.10;;;2.53;;
17631;SDS011;8934;51.194;17.150;2023-04-03T08:07:38;7.32;;;3.25;;
17631;SDS011;8934;51.194;17.150;2023-04-03T08:10:26;4.47;;;2.10;;
17631;SDS011;8934;51.194;17.150;2023-04-03T08:13:13;5.32;;;2.20;;
17631;SDS011;8934;51.194;17.150;2023-04-03T08:16:06;5.85;;;2.38;;
17631;SDS011;8934;51.194;17.150;2023-04-03T08:18:57;4.70;;;2.22;;
17631;SDS011;8934;51.194;17.150;2023-04-03T08:21:46;3.40;;;2.08;;
17631;SDS011;8934;51.194;17.150;2023-04-03T08:24:34;5.30;;;2.08;;
17631;SDS011;8934;51.194;17.150;2023-04-03T08:27:25;5.18;;;2.72;;
17631;SDS011;8934;51.194;17.150;2023-04-03T08:30:13;2.67;;;1.52;;
17631;SDS011;8934;51.194;17.150;2023-04-03T08:33:01;3.40;;;2.05;;
17631;SDS011;8934;51.194;17.150;2023-04-03T08:35:51;3.47;;;1.70;;
17631;SDS011;8934;51.194;17.150;2023-04-03T08:38:38;3.75;;;1.65;;
17631;SDS011;8934;51.194;17.150;2023-04-03T08:41:29;4.05;;;1.83;;
17631;SDS011;8934;51.194;17.150;2023-04-03T08:44:22;3.53;;;1.42;;
17631;SDS011;8934;51.194;17.150;2023-04-03T08:47:15;3.13;;;1.80;;
17631;SDS011;8934;51.194;17.150;2023-04-03T08:50:11;3.15;;;1.92;;
17631;SDS011;8934;51.194;17.150;2023-04-03T08:53:03;1.65;;;1.40;;
17631;SDS011;8934;51.194;17.150;2023-04-03T08:55:58;3.83;;;1.60;;
17631;SDS011;8934;51.194;17.150;2023-04-03T08:58:50;2.58;;;1.50;;
17631;SDS011;8934;51.194;17.150;2023-04-03T09:01:42;2.88;;;1.60;;
17631;SDS011;8934;51.194;17.150;2023-04-03T09:04:31;3.13;;;1.33;;
17631;SDS011;8934;51.194;17.150;2023-04-03T09:07:22;4.50;;;1.23;;
17631;SDS011;8934;51.194;17.150;2023-04-03T09:10:24;1.80;;;1.00;;
17631;SDS011;8934;51.194;17.150;2023-04-03T09:13:21;4.93;;;1.40;;
17631;SDS011;8934;51.194;17.150;2023-04-03T09:16:17;2.78;;;0.90;;
17631;SDS011;8934;51.194;17.150;2023-04-03T09:19:15;5.72;;;1.40;;
17631;SDS011;8934;51.194;17.150;2023-04-03T09:22:12;1.80;;;0.90;;
17631;SDS011;8934;51.194;17.150;2023-04-03T09:25:05;3.88;;;1.60;;
17631;SDS011;8934;51.194;17.150;2023-04-03T09:28:02;3.95;;;1.58;;
17631;SDS011;8934;51.194;17.150;2023-04-03T09:30:55;4.30;;;1.15;;
17631;SDS011;8934;51.194;17.150;2023-04-03T09:33:42;2.90;;;1.65;;
17631;SDS011;8934;51.194;17.150;2023-04-03T09:36:37;4.32;;;1.70;;
17631;SDS011;8934;51.194;17.150;2023-04-03T09:39:27;3.33;;;1.40;;
17631;SDS011;8934;51.194;17.150;2023-04-03T09:42:16;5.15;;;2.28;;
17631;SDS011;8934;51.194;17.150;2023-04-03T09:45:21;3.60;;;2.08;;
17631;SDS011;8934;51.194;17.150;2023-04-03T09:48:15;4.15;;;2.60;;
17631;SDS011;8934;51.194;17.150;2023-04-03T09:51:04;3.33;;;1.77;;
17631;SDS011;8934;51.194;17.150;2023-04-03T09:53:52;5.35;;;2.40;;
17631;SDS011;8934;51.194;17.150;2023-04-03T09:56:39;4.22;;;2.40;;
17631;SDS011;8934;51.194;17.150;2023-04-03T09:59:27;2.20;;;1.80;;
17631;SDS011;8934;51.194;17.150;2023-04-03T10:02:28;3.83;;;1.70;;
17631;SDS011;8934;51.194;17.150;2023-04-03T10:05:25;2.42;;;1.42;;
17631;SDS011;8934;51.194;17.150;2023-04-03T10:08:19;19.08;;;4.70;;
17631;SDS011;8934;51.194;17.150;2023-04-03T10:11:12;5.70;;;2.67;;
17631;SDS011;8934;51.194;17.150;2023-04-03T10:14:02;2.75;;;1.20;;
17631;SDS011;8934;51.194;17.150;2023-04-03T10:16:56;6.18;;;2.75;;
17631;SDS011;8934;51.194;17.150;2023-04-03T10:19:51;3.08;;;1.38;;
17631;SDS011;8934;51.194;17.150;2023-04-03T10:22:43;4.78;;;2.13;;
17631;SDS011;8934;51.194;17.150;2023-04-03T10:25:44;4.50;;;1.40;;
17631;SDS011;8934;51.194;17.150;2023-04-03T10:28:43;2.53;;;1.45;;
17631;SDS011;8934;51.194;17.150;2023-04-03T10:31:37;5.10;;;2.15;;
17631;SDS011;8934;51.194;17.150;2023-04-03T10:34:31;6.28;;;1.70;;
17631;SDS011;8934;51.194;17.150;2023-04-03T10:37:26;4.25;;;1.70;;
17631;SDS011;8934;51.194;17.150;2023-04-03T10:40:24;4.03;;;1.50;;
17631;SDS011;8934;51.194;17.150;2023-04-03T10:43:24;1.98;;;1.20;;
17631;SDS011;8934;51.194;17.150;2023-04-03T10:46:18;6.43;;;1.73;;
17631;SDS011;8934;51.194;17.150;2023-04-03T10:49:13;5.22;;;1.73;;
17631;SDS011;8934;51.194;17.150;2023-04-03T10:52:11;3.05;;;1.42;;
17631;SDS011;8934;51.194;17.150;2023-04-03T10:55:09;3.72;;;1.20;;
17631;SDS011;8934;51.194;17.150;2023-04-03T10:58:12;2.93;;;1.60;;
17631;SDS011;8934;51.194;17.150;2023-04-03T11:01:08;3.92;;;1.45;;
17631;SDS011;8934;51.194;17.150;2023-04-03T11:04:00;3.28;;;1.50;;
17631;SDS011;8934;51.194;17.150;2023-04-03T11:06:51;1.83;;;1.25;;
17631;SDS011;8934;51.194;17.150;2023-04-03T11:09:44;2.65;;;1.55;;
17631;SDS011;8934;51.194;17.150;2023-04-03T11:12:36;2.63;;;1.67;;
17631;SDS011;8934;51.194;17.150;2023-04-03T11:15:29;3.33;;;1.58;;
17631;SDS011;8934;51.194;17.150;2023-04-03T11:18:21;5.93;;;2.75;;
17631;SDS011;8934;51.194;17.150;2023-04-03T11:21:15;3.17;;;1.88;;
17631;SDS011;8934;51.194;17.150;2023-04-03T11:24:11;2.78;;;1.40;;
17631;SDS011;8934;51.194;17.150;2023-04-03T11:27:03;3.08;;;1.50;;
17631;SDS011;8934;51.194;17.150;2023-04-03T11:29:57;2.10;;;1.42;;
17631;SDS011;8934;51.194;17.150;2023-04-03T11:32:52;3.08;;;1.60;;
17631;SDS011;8934;51.194;17.150;2023-04-03T11:35:52;3.38;;;1.67;;
17631;SDS011;8934;51.194;17.150;2023-04-03T11:38:44;3.33;;;1.40;;
17631;SDS011;8934;51.194;17.150;2023-04-03T11:41:35;3.58;;;1.65;;
17631;SDS011;8934;51.194;17.150;2023-04-03T11:44:27;4.20;;;1.65;;
17631;SDS011;8934;51.194;17.150;2023-04-03T11:50:40;2.53;;;1.27;;
17631;SDS011;8934;51.194;17.150;2023-04-03T11:53:32;5.35;;;2.42;;
17631;SDS011;8934;51.194;17.150;2023-04-03T11:56:28;4.07;;;1.85;;
17631;SDS011;8934;51.194;17.150;2023-04-03T11:59:24;3.42;;;2.10;;
17631;SDS011;8934;51.194;17.150;2023-04-03T12:05:40;5.07;;;1.73;;
17631;SDS011;8934;51.194;17.150;2023-04-03T12:08:27;2.50;;;1.70;;
17631;SDS011;8934;51.194;17.150;2023-04-03T12:11:21;3.92;;;1.38;;
17631;SDS011;8934;51.194;17.150;2023-04-03T12:14:13;5.23;;;2.03;;
17631;SDS011;8934;51.194;17.150;2023-04-03T12:17:02;3.70;;;1.73;;
17631;SDS011;8934;51.194;17.150;2023-04-03T12:23:34;6.05;;;2.30;;
17631;SDS011;8934;51.194;17.150;2023-04-03T12:26:25;4.07;;;2.10;;
17631;SDS011;8934;51.194;17.150;2023-04-03T12:29:33;4.07;;;1.95;;
17631;SDS011;8934;51.194;17.150;2023-04-03T12:32:34;4.07;;;1.85;;
17631;SDS011;8934;51.194;17.150;2023-04-03T12:35:29;4.65;;;1.80;;
17631;SDS011;8934;51.194;17.150;2023-04-03T12:41:57;4.07;;;2.08;;
17631;SDS011;8934;51.194;17.150;2023-04-03T12:44:59;5.25;;;2.10;;
17631;SDS011;8934;51.194;17.150;2023-04-03T12:47:56;4.93;;;2.10;;
17631;SDS011;8934;51.194;17.150;2023-04-03T12:50:45;2.83;;;1.95;;
17631;SDS011;8934;51.194;17.150;2023-04-03T12:53:34;5.38;;;1.70;;
17631;SDS011;8934;51.194;17.150;2023-04-03T12:56:26;5.30;;;2.08;;
17631;SDS011;8934;51.194;17.150;2023-04-03T12:59:19;3.67;;;2.00;;
17631;SDS011;8934;51.194;17.150;2023-04-03T13:02:15;3.10;;;1.80;;
17631;SDS011;8934;51.194;17.150;2023-04-03T13:05:09;3.05;;;1.75;;
17631;SDS011;8934;51.194;17.150;2023-04-03T13:08:04;5.57;;;2.30;;
17631;SDS011;8934;51.194;17.150;2023-04-03T13:10:58;4.18;;;1.90;;
17631;SDS011;8934;51.194;17.150;2023-04-03T13:13:57;4.13;;;1.67;;
17631;SDS011;8934;51.194;17.150;2023-04-03T13:16:53;3.33;;;1.80;;
17631;SDS011;8934;51.194;17.150;2023-04-03T13:19:42;6.22;;;2.50;;
17631;SDS011;8934;51.194;17.150;2023-04-03T13:22:32;3.35;;;1.90;;
17631;SDS011;8934;51.194;17.150;2023-04-03T13:25:26;2.70;;;1.90;;
17631;SDS011;8934;51.194;17.150;2023-04-03T13:28:18;3.28;;;1.80;;
17631;SDS011;8934;51.194;17.150;2023-04-03T13:31:16;3.75;;;2.25;;
17631;SDS011;8934;51.194;17.150;2023-04-03T13:34:10;3.13;;;1.83;;
17631;SDS011;8934;51.194;17.150;2023-04-03T13:37:00;2.83;;;1.60;;
17631;SDS011;8934;51.194;17.150;2023-04-03T13:39:56;4.68;;;1.40;;
17631;SDS011;8934;51.194;17.150;2023-04-03T13:42:58;4.18;;;1.80;;
17631;SDS011;8934;51.194;17.150;2023-04-03T13:45:58;2.70;;;1.90;;
17631;SDS011;8934;51.194;17.150;2023-04-03T13:48:53;5.07;;;1.80;;
17631;SDS011;8934;51.194;17.150;2023-04-03T13:51:42;3.65;;;2.08;;
17631;SDS011;8934;51.194;17.150;2023-04-03T13:54:34;4.55;;;1.65;;
17631;SDS011;8934;51.194;17.150;2023-04-03T13:57:24;3.72;;;1.85;;
17631;SDS011;8934;51.194;17.150;2023-04-03T14:00:26;3.28;;;1.83;;
17631;SDS011;8934;51.194;17.150;2023-04-03T14:03:17;4.15;;;1.80;;
17631;SDS011;8934;51.194;17.150;2023-04-03T14:06:10;6.40;;;2.10;;
17631;SDS011;8934;51.194;17.150;2023-04-03T14:08:59;6.43;;;2.90;;
17631;SDS011;8934;51.194;17.150;2023-04-03T14:11:46;5.00;;;2.63;;
17631;SDS011;8934;51.194;17.150;2023-04-03T14:14:36;2.33;;;1.50;;
17631;SDS011;8934;51.194;17.150;2023-04-03T14:17:25;2.50;;;1.55;;
17631;SDS011;8934;51.194;17.150;2023-04-03T14:20:16;3.47;;;1.95;;
17631;SDS011;8934;51.194;17.150;2023-04-03T14:23:07;2.38;;;1.90;;
17631;SDS011;8934;51.194;17.150;2023-04-03T14:25:58;4.68;;;2.58;;
17631;SDS011;8934;51.194;17.150;2023-04-03T14:28:46;3.60;;;2.20;;
17631;SDS011;8934;51.194;17.150;2023-04-03T14:31:36;2.75;;;1.65;;
17631;SDS011;8934;51.194;17.150;2023-04-03T14:34:23;3.28;;;1.77;;
17631;SDS011;8934;51.194;17.150;2023-04-03T14:37:11;3.90;;;1.80;;
17631;SDS011;8934;51.194;17.150;2023-04-03T14:40:03;4.22;;;2.03;;
17631;SDS011;8934;51.194;17.150;2023-04-03T14:42:53;5.72;;;2.10;;
17631;SDS011;8934;51.194;17.150;2023-04-03T14:45:42;3.28;;;1.77;;
17631;SDS011;8934;51.194;17.150;2023-04-03T14:48:31;4.65;;;1.58;;
17631;SDS011;8934;51.194;17.150;2023-04-03T14:51:19;2.05;;;1.63;;
17631;SDS011;8934;51.194;17.150;2023-04-03T14:54:10;3.38;;;1.75;;
17631;SDS011;8934;51.194;17.150;2023-04-03T14:57:02;2.67;;;1.70;;
17631;SDS011;8934;51.194;17.150;2023-04-03T14:59:52;2.88;;;1.58;;
17631;SDS011;8934;51.194;17.150;2023-04-03T15:02:39;3.83;;;1.60;;
17631;SDS011;8934;51.194;17.150;2023-04-03T15:05:28;2.17;;;1.60;;
17631;SDS011;8934;51.194;17.150;2023-04-03T15:08:20;4.40;;;2.17;;
17631;SDS011;8934;51.194;17.150;2023-04-03T15:11:10;2.30;;;1.90;;
17631;SDS011;8934;51.194;17.150;2023-04-03T15:13:59;3.58;;;1.85;;
17631;SDS011;8934;51.194;17.150;2023-04-03T15:16:48;3.92;;;1.83;;
17631;SDS011;8934;51.194;17.150;2023-04-03T15:19:37;3.25;;;2.05;;
17631;SDS011;8934;51.194;17.150;2023-04-03T15:22:25;3.00;;;1.80;;
17631;SDS011;8934;51.194;17.150;2023-04-03T15:25:13;2.40;;;1.92;;
17631;SDS011;8934;51.194;17.150;2023-04-03T15:28:01;4.20;;;2.08;;
17631;SDS011;8934;51.194;17.150;2023-04-03T15:30:50;2.20;;;1.45;;
17631;SDS011;8934;51.194;17.150;2023-04-03T15:33:38;4.07;;;2.00;;
17631;SDS011;8934;51.194;17.150;2023-04-03T15:36:26;4.43;;;1.92;;
17631;SDS011;8934;51.194;17.150;2023-04-03T15:39:19;4.53;;;2.17;;
17631;SDS011;8934;51.194;17.150;2023-04-03T15:42:09;4.57;;;2.50;;
17631;SDS011;8934;51.194;17.150;2023-04-03T15:44:58;5.43;;;2.78;;
17631;SDS011;8934;51.194;17.150;2023-04-03T15:47:47;3.92;;;2.30;;
17631;SDS011;8934;51.194;17.150;2023-04-03T15:50:35;7.22;;;2.25;;
17631;SDS011;8934;51.194;17.150;2023-04-03T15:53:23;6.32;;;2.90;;
17631;SDS011;8934;51.194;17.150;2023-04-03T15:56:11;6.35;;;3.45;;
17631;SDS011;8934;51.194;17.150;2023-04-03T15:58:59;7.32;;;4.20;;
17631;SDS011;8934;51.194;17.150;2023-04-03T16:01:46;5.20;;;3.05;;
17631;SDS011;8934;51.194;17.150;2023-04-03T16:04:36;3.78;;;2.95;;
17631;SDS011;8934;51.194;17.150;2023-04-03T16:07:24;5.95;;;2.83;;
17631;SDS011;8934;51.194;17.150;2023-04-03T16:10:12;4.05;;;2.53;;
17631;SDS011;8934;51.194;17.150;2023-04-03T16:13:03;5.78;;;3.00;;
17631;SDS011;8934;51.194;17.150;2023-04-03T16:15:51;4.88;;;2.10;;
17631;SDS011;8934;51.194;17.150;2023-04-03T16:18:39;5.55;;;2.00;;
17631;SDS011;8934;51.194;17.150;2023-04-03T16:21:28;4.57;;;2.22;;
17631;SDS011;8934;51.194;17.150;2023-04-03T16:24:16;4.03;;;2.03;;
17631;SDS011;8934;51.194;17.150;2023-04-03T16:27:04;3.38;;;1.92;;
17631;SDS011;8934;51.194;17.150;2023-04-03T16:29:54;3.60;;;2.40;;
17631;SDS011;8934;51.194;17.150;2023-04-03T16:32:41;4.80;;;2.83;;
17631;SDS011;8934;51.194;17.150;2023-04-03T16:35:29;7.53;;;2.55;;
17631;SDS011;8934;51.194;17.150;2023-04-03T16:38:19;5.72;;;2.90;;
17631;SDS011;8934;51.194;17.150;2023-04-03T16:41:07;7.13;;;2.88;;
17631;SDS011;8934;51.194;17.150;2023-04-03T16:43:55;4.45;;;2.83;;
17631;SDS011;8934;51.194;17.150;2023-04-03T16:46:43;5.05;;;2.45;;
17631;SDS011;8934;51.194;17.150;2023-04-03T16:49:32;4.22;;;2.92;;
17631;SDS011;8934;51.194;17.150;2023-04-03T16:52:20;6.32;;;2.90;;
17631;SDS011;8934;51.194;17.150;2023-04-03T16:55:09;5.88;;;2.38;;
17631;SDS011;8934;51.194;17.150;2023-04-03T16:57:57;4.20;;;2.35;;
17631;SDS011;8934;51.194;17.150;2023-04-03T17:00:45;6.05;;;2.25;;
17631;SDS011;8934;51.194;17.150;2023-04-03T17:03:33;5.88;;;1.90;;
17631;SDS011;8934;51.194;17.150;2023-04-03T17:06:21;3.65;;;2.30;;
17631;SDS011;8934;51.194;17.150;2023-04-03T17:09:09;2.90;;;1.85;;
17631;SDS011;8934;51.194;17.150;2023-04-03T17:11:58;3.88;;;2.05;;
17631;SDS011;8934;51.194;17.150;2023-04-03T17:14:46;5.82;;;2.45;;
17631;SDS011;8934;51.194;17.150;2023-04-03T17:17:34;3.97;;;2.20;;
17631;SDS011;8934;51.194;17.150;2023-04-03T17:20:23;5.10;;;2.25;;